sensor_id;sensor_type;location;lat;lon;timestamp;temperature;humidity
49124;DHT22;48506;48.202;16.274;2023-02-22T00:00:56;12.90;86.90
49124;DHT22;48506;48.202;16.274;2023-02-22T00:03:30;12.90;87.00
49124;DHT22;48506;48.202;16.274;2023-02-22T00:06:01;12.90;87.00
49124;DHT22;48506;48.202;16.274;2023-02-22T00:08:32;12.90;87.20
49124;DHT22;48506;48.202;16.274;2023-02-22T00:11:00;12.90;87.00
49124;DHT22;48506;48.202;16.274;2023-02-22T00:13:27;12.90;87.00
49124;DHT22;48506;48.202;16.274;2023-02-22T00:15:57;12.90;87.10
49124;DHT22;48506;48.202;16.274;2023-02-22T00:18:25;12.90;86.90
49124;DHT22;48506;48.202;16.274;2023-02-22T00:20:58;12.90;86.90
49124;DHT22;48506;48.202;16.274;2023-02-22T00:23:26;13.00;86.90
49124;DHT22;48506;48.202;16.274;2023-02-22T00:25:53;13.00;86.80
49124;DHT22;48506;48.202;16.274;2023-02-22T00:28:20;13.00;87.00
49124;DHT22;48506;48.202;16.274;2023-02-22T00:30:49;13.00;87.10
49124;DHT22;48506;48.202;16.274;2023-02-22T00:33:16;13.00;87.40
49124;DHT22;48506;48.202;16.274;2023-02-22T00:35:44;13.00;87.20
49124;DHT22;48506;48.202;16.274;2023-02-22T00:38:11;13.00;87.30
49124;DHT22;48506;48.202;16.274;2023-02-22T00:40:38;13.00;87.30
49124;DHT22;48506;48.202;16.274;2023-02-22T00:43:05;13.00;87.20
49124;DHT22;48506;48.202;16.274;2023-02-22T00:45:33;13.00;87.40
49124;DHT22;48506;48.202;16.274;2023-02-22T00:48:00;13.10;87.30
49124;DHT22;48506;48.202;16.274;2023-02-22T00:50:29;13.10;87.00
49124;DHT22;48506;48.202;16.274;2023-02-22T00:52:56;13.10;87.10
49124;DHT22;48506;48.202;16.274;2023-02-22T00:55:34;13.10;87.00
49124;DHT22;48506;48.202;16.274;2023-02-22T00:58:01;13.10;87.10
49124;DHT22;48506;48.202;16.274;2023-02-22T01:00:33;13.10;86.80
49124;DHT22;48506;48.202;16.274;2023-02-22T01:03:00;13.10;87.00
49124;DHT22;48506;48.202;16.274;2023-02-22T01:05:27;13.10;87.00
49124;DHT22;48506;48.202;16.274;2023-02-22T01:07:55;13.10;87.30
49124;DHT22;48506;48.202;16.274;2023-02-22T01:10:23;13.00;87.10
49124;DHT22;48506;48.202;16.274;2023-02-22T01:12:50;13.10;87.00
49124;DHT22;48506;48.202;16.274;2023-02-22T01:15:19;13.10;86.70
49124;DHT22;48506;48.202;16.274;2023-02-22T01:17:50;13.10;86.70
49124;DHT22;48506;48.202;16.274;2023-02-22T01:20:16;13.10;86.70
49124;DHT22;48506;48.202;16.274;2023-02-22T01:22:46;13.10;86.90
49124;DHT22;48506;48.202;16.274;2023-02-22T01:25:16;13.00;86.90
49124;DHT22;48506;48.202;16.274;2023-02-22T01:27:42;13.00;86.80
49124;DHT22;48506;48.202;16.274;2023-02-22T01:30:11;13.00;86.60
49124;DHT22;48506;48.202;16.274;2023-02-22T01:32:39;13.00;86.60
49124;DHT22;48506;48.202;16.274;2023-02-22T01:35:09;13.00;86.60
49124;DHT22;48506;48.202;16.274;2023-02-22T01:37:35;13.00;86.50
49124;DHT22;48506;48.202;16.274;2023-02-22T01:40:03;13.00;86.40
49124;DHT22;48506;48.202;16.274;2023-02-22T01:42:32;13.00;86.90
49124;DHT22;48506;48.202;16.274;2023-02-22T01:50:58;13.00;85.90
49124;DHT22;48506;48.202;16.274;2023-02-22T01:53:29;13.00;85.80
49124;DHT22;48506;48.202;16.274;2023-02-22T01:55:57;13.00;85.80
49124;DHT22;48506;48.202;16.274;2023-02-22T01:58:25;13.00;85.80
49124;DHT22;48506;48.202;16.274;2023-02-22T02:00:52;13.00;85.70
49124;DHT22;48506;48.202;16.274;2023-02-22T02:03:25;13.00;85.80
49124;DHT22;48506;48.202;16.274;2023-02-22T02:05:54;13.00;85.70
49124;DHT22;48506;48.202;16.274;2023-02-22T02:10:56;13.00;86.10
49124;DHT22;48506;48.202;16.274;2023-02-22T02:13:24;13.00;86.00
49124;DHT22;48506;48.202;16.274;2023-02-22T02:15:53;13.00;86.10
49124;DHT22;48506;48.202;16.274;2023-02-22T02:18:20;12.90;86.00
49124;DHT22;48506;48.202;16.274;2023-02-22T02:35:11;13.00;86.70
49124;DHT22;48506;48.202;16.274;2023-02-22T02:37:57;13.00;86.80
49124;DHT22;48506;48.202;16.274;2023-02-22T02:40:37;13.00;86.80
49124;DHT22;48506;48.202;16.274;2023-02-22T02:43:20;13.00;87.10
49124;DHT22;48506;48.202;16.274;2023-02-22T02:46:43;13.00;87.10
49124;DHT22;48506;48.202;16.274;2023-02-22T02:48:59;13.00;87.00
49124;DHT22;48506;48.202;16.274;2023-02-22T02:51:35;13.00;87.40
49124;DHT22;48506;48.202;16.274;2023-02-22T02:54:03;13.00;87.20
49124;DHT22;48506;48.202;16.274;2023-02-22T02:56:31;13.00;87.10
49124;DHT22;48506;48.202;16.274;2023-02-22T02:58:57;13.00;87.30
49124;DHT22;48506;48.202;16.274;2023-02-22T03:01:52;13.00;87.40
49124;DHT22;48506;48.202;16.274;2023-02-22T03:04:36;13.00;87.50
49124;DHT22;48506;48.202;16.274;2023-02-22T03:07:23;12.90;87.30
49124;DHT22;48506;48.202;16.274;2023-02-22T03:10:01;12.90;87.60
49124;DHT22;48506;48.202;16.274;2023-02-22T03:15:22;12.90;87.60
49124;DHT22;48506;48.202;16.274;2023-02-22T03:18:03;13.00;87.50
49124;DHT22;48506;48.202;16.274;2023-02-22T03:26:12;12.90;87.60
49124;DHT22;48506;48.202;16.274;2023-02-22T03:28:39;12.90;87.70
49124;DHT22;48506;48.202;16.274;2023-02-22T03:31:13;12.90;87.60
49124;DHT22;48506;48.202;16.274;2023-02-22T03:33:54;12.90;87.70
49124;DHT22;48506;48.202;16.274;2023-02-22T03:36:24;12.90;88.20
49124;DHT22;48506;48.202;16.274;2023-02-22T03:38:53;12.80;88.00
49124;DHT22;48506;48.202;16.274;2023-02-22T03:41:23;12.80;88.50
49124;DHT22;48506;48.202;16.274;2023-02-22T03:44:04;12.80;88.60
49124;DHT22;48506;48.202;16.274;2023-02-22T03:46:31;12.70;88.20
49124;DHT22;48506;48.202;16.274;2023-02-22T03:50:02;12.80;88.00
49124;DHT22;48506;48.202;16.274;2023-02-22T03:51:55;12.70;87.60
49124;DHT22;48506;48.202;16.274;2023-02-22T03:54:21;12.70;87.00
49124;DHT22;48506;48.202;16.274;2023-02-22T03:57:18;12.70;87.00
49124;DHT22;48506;48.202;16.274;2023-02-22T03:59:45;12.70;86.90
49124;DHT22;48506;48.202;16.274;2023-02-22T04:02:11;12.80;86.70
49124;DHT22;48506;48.202;16.274;2023-02-22T04:04:37;12.80;86.60
49124;DHT22;48506;48.202;16.274;2023-02-22T04:07:03;12.80;86.70
49124;DHT22;48506;48.202;16.274;2023-02-22T04:09:29;12.80;86.90
49124;DHT22;48506;48.202;16.274;2023-02-22T04:11:55;12.80;86.70
49124;DHT22;48506;48.202;16.274;2023-02-22T04:14:21;12.80;86.90
49124;DHT22;48506;48.202;16.274;2023-02-22T04:16:47;12.80;86.80
49124;DHT22;48506;48.202;16.274;2023-02-22T04:19:13;12.80;86.80
49124;DHT22;48506;48.202;16.274;2023-02-22T04:21:38;12.80;87.00
49124;DHT22;48506;48.202;16.274;2023-02-22T04:24:05;12.80;86.90
49124;DHT22;48506;48.202;16.274;2023-02-22T04:26:31;12.80;86.90
49124;DHT22;48506;48.202;16.274;2023-02-22T04:28:57;12.80;86.80
49124;DHT22;48506;48.202;16.274;2023-02-22T04:31:23;12.80;87.50
49124;DHT22;48506;48.202;16.274;2023-02-22T04:33:48;12.70;87.60
49124;DHT22;48506;48.202;16.274;2023-02-22T04:36:14;12.70;87.50
49124;DHT22;48506;48.202;16.274;2023-02-22T04:38:42;12.70;87.50
49124;DHT22;48506;48.202;16.274;2023-02-22T04:41:08;12.70;87.70
49124;DHT22;48506;48.202;16.274;2023-02-22T04:43:33;12.70;87.60
49124;DHT22;48506;48.202;16.274;2023-02-22T04:45:59;12.70;87.60
49124;DHT22;48506;48.202;16.274;2023-02-22T04:48:25;12.70;87.40
49124;DHT22;48506;48.202;16.274;2023-02-22T04:50:51;12.70;87.50
49124;DHT22;48506;48.202;16.274;2023-02-22T04:53:17;12.70;87.60
49124;DHT22;48506;48.202;16.274;2023-02-22T04:55:43;12.60;87.70
49124;DHT22;48506;48.202;16.274;2023-02-22T04:58:09;12.70;88.00
49124;DHT22;48506;48.202;16.274;2023-02-22T05:00:35;12.60;88.10
49124;DHT22;48506;48.202;16.274;2023-02-22T05:03:01;12.60;88.10
49124;DHT22;48506;48.202;16.274;2023-02-22T05:05:27;12.60;88.90
49124;DHT22;48506;48.202;16.274;2023-02-22T05:07:53;12.60;88.40
49124;DHT22;48506;48.202;16.274;2023-02-22T05:10:19;12.60;88.50
49124;DHT22;48506;48.202;16.274;2023-02-22T05:12:45;12.50;88.50
49124;DHT22;48506;48.202;16.274;2023-02-22T05:15:19;12.50;88.90
49124;DHT22;48506;48.202;16.274;2023-02-22T05:17:46;12.50;88.90
49124;DHT22;48506;48.202;16.274;2023-02-22T05:20:38;12.50;89.00
49124;DHT22;48506;48.202;16.274;2023-02-22T05:23:05;12.40;89.10
49124;DHT22;48506;48.202;16.274;2023-02-22T05:25:32;12.40;89.30
49124;DHT22;48506;48.202;16.274;2023-02-22T05:28:02;12.40;90.00
49124;DHT22;48506;48.202;16.274;2023-02-22T05:30:31;12.40;89.90
49124;DHT22;48506;48.202;16.274;2023-02-22T05:32:57;12.30;90.00
49124;DHT22;48506;48.202;16.274;2023-02-22T05:35:24;12.30;89.90
49124;DHT22;48506;48.202;16.274;2023-02-22T05:37:51;12.30;89.90
49124;DHT22;48506;48.202;16.274;2023-02-22T05:40:23;12.40;90.10
49124;DHT22;48506;48.202;16.274;2023-02-22T05:42:50;12.30;90.00
49124;DHT22;48506;48.202;16.274;2023-02-22T05:45:19;12.30;89.90
49124;DHT22;48506;48.202;16.274;2023-02-22T05:47:45;12.40;89.90
49124;DHT22;48506;48.202;16.274;2023-02-22T05:50:12;12.40;90.00
49124;DHT22;48506;48.202;16.274;2023-02-22T05:52:39;12.30;90.10
49124;DHT22;48506;48.202;16.274;2023-02-22T05:55:06;12.30;90.10
49124;DHT22;48506;48.202;16.274;2023-02-22T05:57:32;12.30;90.00
49124;DHT22;48506;48.202;16.274;2023-02-22T05:59:59;12.30;90.10
49124;DHT22;48506;48.202;16.274;2023-02-22T06:02:25;12.30;90.10
49124;DHT22;48506;48.202;16.274;2023-02-22T06:04:51;12.30;90.10
49124;DHT22;48506;48.202;16.274;2023-02-22T06:07:18;12.30;90.10
49124;DHT22;48506;48.202;16.274;2023-02-22T06:09:43;12.40;90.10
49124;DHT22;48506;48.202;16.274;2023-02-22T06:12:09;12.40;90.10
49124;DHT22;48506;48.202;16.274;2023-02-22T06:14:37;12.40;90.10
49124;DHT22;48506;48.202;16.274;2023-02-22T06:17:03;12.40;90.10
49124;DHT22;48506;48.202;16.274;2023-02-22T06:19:30;12.40;90.10
49124;DHT22;48506;48.202;16.274;2023-02-22T06:21:56;12.40;90.00
49124;DHT22;48506;48.202;16.274;2023-02-22T06:24:25;12.50;90.10
49124;DHT22;48506;48.202;16.274;2023-02-22T06:26:59;12.40;90.10
49124;DHT22;48506;48.202;16.274;2023-02-22T06:29:26;12.50;90.20
49124;DHT22;48506;48.202;16.274;2023-02-22T06:31:52;12.50;90.20
49124;DHT22;48506;48.202;16.274;2023-02-22T06:34:19;12.50;90.20
49124;DHT22;48506;48.202;16.274;2023-02-22T06:36:46;12.50;90.30
49124;DHT22;48506;48.202;16.274;2023-02-22T06:39:14;12.60;90.20
49124;DHT22;48506;48.202;16.274;2023-02-22T06:41:41;12.60;90.10
49124;DHT22;48506;48.202;16.274;2023-02-22T06:44:09;12.60;90.10
49124;DHT22;48506;48.202;16.274;2023-02-22T06:46:36;12.60;90.10
49124;DHT22;48506;48.202;16.274;2023-02-22T06:49:04;12.60;90.10
49124;DHT22;48506;48.202;16.274;2023-02-22T06:51:35;12.60;90.10
49124;DHT22;48506;48.202;16.274;2023-02-22T06:54:02;12.70;90.30
49124;DHT22;48506;48.202;16.274;2023-02-22T06:56:29;12.70;90.40
49124;DHT22;48506;48.202;16.274;2023-02-22T06:58:56;12.70;90.30
49124;DHT22;48506;48.202;16.274;2023-02-22T07:01:22;12.80;90.30
49124;DHT22;48506;48.202;16.274;2023-02-22T07:03:48;12.80;90.50
49124;DHT22;48506;48.202;16.274;2023-02-22T07:06:14;12.80;90.10
49124;DHT22;48506;48.202;16.274;2023-02-22T07:08:40;12.80;90.00
49124;DHT22;48506;48.202;16.274;2023-02-22T07:11:06;12.90;90.00
49124;DHT22;48506;48.202;16.274;2023-02-22T07:13:33;12.90;89.90
49124;DHT22;48506;48.202;16.274;2023-02-22T07:15:59;12.90;90.10
49124;DHT22;48506;48.202;16.274;2023-02-22T07:18:24;13.00;90.20
49124;DHT22;48506;48.202;16.274;2023-02-22T07:20:50;13.00;89.70
49124;DHT22;48506;48.202;16.274;2023-02-22T07:23:17;13.10;89.20
49124;DHT22;48506;48.202;16.274;2023-02-22T07:25:43;13.10;89.10
49124;DHT22;48506;48.202;16.274;2023-02-22T07:28:09;13.10;89.00
49124;DHT22;48506;48.202;16.274;2023-02-22T07:30:37;13.20;89.30
49124;DHT22;48506;48.202;16.274;2023-02-22T07:33:07;13.30;88.50
49124;DHT22;48506;48.202;16.274;2023-02-22T07:35:43;13.30;88.10
49124;DHT22;48506;48.202;16.274;2023-02-22T07:38:11;13.30;87.90
49124;DHT22;48506;48.202;16.274;2023-02-22T07:40:38;13.40;88.40
49124;DHT22;48506;48.202;16.274;2023-02-22T07:45:34;13.50;88.40
49124;DHT22;48506;48.202;16.274;2023-02-22T07:48:01;13.50;88.80
49124;DHT22;48506;48.202;16.274;2023-02-22T07:50:29;13.60;88.30
49124;DHT22;48506;48.202;16.274;2023-02-22T07:52:58;13.60;88.00
49124;DHT22;48506;48.202;16.274;2023-02-22T07:55:27;13.70;87.80
49124;DHT22;48506;48.202;16.274;2023-02-22T07:57:56;13.80;87.10
49124;DHT22;48506;48.202;16.274;2023-02-22T08:02:51;13.80;86.70
49124;DHT22;48506;48.202;16.274;2023-02-22T08:05:17;14.00;87.40
49124;DHT22;48506;48.202;16.274;2023-02-22T08:07:45;14.10;87.70
49124;DHT22;48506;48.202;16.274;2023-02-22T08:10:14;14.20;85.90
49124;DHT22;48506;48.202;16.274;2023-02-22T08:12:41;14.20;85.20
49124;DHT22;48506;48.202;16.274;2023-02-22T08:15:12;14.30;85.50
49124;DHT22;48506;48.202;16.274;2023-02-22T08:17:39;14.30;85.30
49124;DHT22;48506;48.202;16.274;2023-02-22T08:20:05;14.40;85.20
49124;DHT22;48506;48.202;16.274;2023-02-22T08:22:32;14.50;85.50
49124;DHT22;48506;48.202;16.274;2023-02-22T08:24:57;14.60;85.00
49124;DHT22;48506;48.202;16.274;2023-02-22T08:27:25;14.70;84.90
49124;DHT22;48506;48.202;16.274;2023-02-22T08:29:52;14.80;84.60
49124;DHT22;48506;48.202;16.274;2023-02-22T08:32:19;14.80;83.80
49124;DHT22;48506;48.202;16.274;2023-02-22T08:34:45;14.90;83.10
49124;DHT22;48506;48.202;16.274;2023-02-22T08:37:11;14.90;83.70
49124;DHT22;48506;48.202;16.274;2023-02-22T08:39:38;15.00;83.60
49124;DHT22;48506;48.202;16.274;2023-02-22T08:42:04;15.10;83.30
49124;DHT22;48506;48.202;16.274;2023-02-22T08:44:30;15.10;82.20
49124;DHT22;48506;48.202;16.274;2023-02-22T08:46:56;15.10;82.40
49124;DHT22;48506;48.202;16.274;2023-02-22T08:49:23;15.10;82.60
49124;DHT22;48506;48.202;16.274;2023-02-22T08:51:49;15.30;82.70
49124;DHT22;48506;48.202;16.274;2023-02-22T08:54:14;15.40;81.30
49124;DHT22;48506;48.202;16.274;2023-02-22T08:56:42;15.30;80.30
49124;DHT22;48506;48.202;16.274;2023-02-22T08:59:09;15.40;80.00
49124;DHT22;48506;48.202;16.274;2023-02-22T09:01:35;15.50;80.50
49124;DHT22;48506;48.202;16.274;2023-02-22T09:04:01;15.50;79.80
49124;DHT22;48506;48.202;16.274;2023-02-22T09:06:28;15.60;79.00
49124;DHT22;48506;48.202;16.274;2023-02-22T09:08:54;15.70;79.90
49124;DHT22;48506;48.202;16.274;2023-02-22T09:11:20;15.70;80.10
49124;DHT22;48506;48.202;16.274;2023-02-22T09:13:46;15.90;78.40
49124;DHT22;48506;48.202;16.274;2023-02-22T09:16:12;15.90;76.50
49124;DHT22;48506;48.202;16.274;2023-02-22T09:18:38;15.90;76.70
49124;DHT22;48506;48.202;16.274;2023-02-22T09:21:04;15.90;77.80
49124;DHT22;48506;48.202;16.274;2023-02-22T09:23:31;15.90;77.20
49124;DHT22;48506;48.202;16.274;2023-02-22T09:25:57;16.00;77.10
49124;DHT22;48506;48.202;16.274;2023-02-22T09:28:26;16.10;78.10
49124;DHT22;48506;48.202;16.274;2023-02-22T09:30:52;16.20;76.90
49124;DHT22;48506;48.202;16.274;2023-02-22T09:33:20;16.30;77.20
49124;DHT22;48506;48.202;16.274;2023-02-22T09:35:48;16.40;77.00
49124;DHT22;48506;48.202;16.274;2023-02-22T09:38:20;16.40;76.40
49124;DHT22;48506;48.202;16.274;2023-02-22T09:41:12;16.40;76.50
49124;DHT22;48506;48.202;16.274;2023-02-22T09:46:21;16.50;75.90
49124;DHT22;48506;48.202;16.274;2023-02-22T09:48:59;16.60;75.90
49124;DHT22;48506;48.202;16.274;2023-02-22T09:51:33;16.70;75.40
49124;DHT22;48506;48.202;16.274;2023-02-22T09:54:05;16.80;76.20
49124;DHT22;48506;48.202;16.274;2023-02-22T09:56:36;17.00;74.30
49124;DHT22;48506;48.202;16.274;2023-02-22T09:59:06;17.10;73.90
49124;DHT22;48506;48.202;16.274;2023-02-22T10:01:43;17.10;74.40
49124;DHT22;48506;48.202;16.274;2023-02-22T10:07:00;17.30;73.80
49124;DHT22;48506;48.202;16.274;2023-02-22T10:09:33;17.40;73.80
49124;DHT22;48506;48.202;16.274;2023-02-22T10:12:10;17.50;73.00
49124;DHT22;48506;48.202;16.274;2023-02-22T10:17:39;17.50;75.40
49124;DHT22;48506;48.202;16.274;2023-02-22T10:23:35;17.50;75.50
49124;DHT22;48506;48.202;16.274;2023-02-22T10:26:23;17.50;76.00
49124;DHT22;48506;48.202;16.274;2023-02-22T10:28:59;17.70;76.40
49124;DHT22;48506;48.202;16.274;2023-02-22T10:31:29;17.70;75.70
49124;DHT22;48506;48.202;16.274;2023-02-22T10:34:03;17.80;75.80
49124;DHT22;48506;48.202;16.274;2023-02-22T10:36:30;17.90;75.60
49124;DHT22;48506;48.202;16.274;2023-02-22T10:41:34;18.30;75.30
49124;DHT22;48506;48.202;16.274;2023-02-22T10:44:01;18.70;75.70
49124;DHT22;48506;48.202;16.274;2023-02-22T10:46:29;18.90;73.80
49124;DHT22;48506;48.202;16.274;2023-02-22T10:49:00;18.90;72.40
49124;DHT22;48506;48.202;16.274;2023-02-22T10:51:27;18.90;71.00
49124;DHT22;48506;48.202;16.274;2023-02-22T10:56:51;18.70;69.90
49124;DHT22;48506;48.202;16.274;2023-02-22T10:59:33;18.60;70.60
49124;DHT22;48506;48.202;16.274;2023-02-22T11:02:00;18.50;70.60
49124;DHT22;48506;48.202;16.274;2023-02-22T11:04:26;18.70;69.90
49124;DHT22;48506;48.202;16.274;2023-02-22T11:07:17;18.80;69.60
49124;DHT22;48506;48.202;16.274;2023-02-22T11:09:55;19.10;70.00
49124;DHT22;48506;48.202;16.274;2023-02-22T11:12:30;19.30;68.70
49124;DHT22;48506;48.202;16.274;2023-02-22T11:17:50;19.00;69.60
49124;DHT22;48506;48.202;16.274;2023-02-22T11:20:21;18.80;68.30
49124;DHT22;48506;48.202;16.274;2023-02-22T11:22:52;18.50;69.70
49124;DHT22;48506;48.202;16.274;2023-02-22T11:25:22;18.30;70.40
49124;DHT22;48506;48.202;16.274;2023-02-22T11:27:49;18.30;69.40
49124;DHT22;48506;48.202;16.274;2023-02-22T11:33:17;18.70;71.00
49124;DHT22;48506;48.202;16.274;2023-02-22T11:35:55;19.10;70.30
49124;DHT22;48506;48.202;16.274;2023-02-22T11:38:28;19.50;70.00
49124;DHT22;48506;48.202;16.274;2023-02-22T11:43:48;20.40;68.30
49124;DHT22;48506;48.202;16.274;2023-02-22T11:46:25;20.70;66.50
49124;DHT22;48506;48.202;16.274;2023-02-22T11:49:04;20.90;65.80
49124;DHT22;48506;48.202;16.274;2023-02-22T11:57:08;20.10;65.20
49124;DHT22;48506;48.202;16.274;2023-02-22T12:02:53;19.70;67.10
49124;DHT22;48506;48.202;16.274;2023-02-22T12:05:40;20.10;67.00
49124;DHT22;48506;48.202;16.274;2023-02-22T12:21:06;19.80;66.90
49124;DHT22;48506;48.202;16.274;2023-02-22T12:26:33;20.40;66.10
49124;DHT22;48506;48.202;16.274;2023-02-22T12:29:38;20.60;65.50
49124;DHT22;48506;48.202;16.274;2023-02-22T12:34:54;21.30;64.40
49124;DHT22;48506;48.202;16.274;2023-02-22T12:40:12;21.80;64.50
49124;DHT22;48506;48.202;16.274;2023-02-22T12:42:52;22.00;64.30
49124;DHT22;48506;48.202;16.274;2023-02-22T12:45:37;22.20;63.40
49124;DHT22;48506;48.202;16.274;2023-02-22T12:51:28;22.70;62.30
49124;DHT22;48506;48.202;16.274;2023-02-22T12:54:07;23.10;61.30
49124;DHT22;48506;48.202;16.274;2023-02-22T12:56:40;23.40;60.70
49124;DHT22;48506;48.202;16.274;2023-02-22T12:59:47;23.50;59.70
49124;DHT22;48506;48.202;16.274;2023-02-22T13:04:48;23.70;59.40
49124;DHT22;48506;48.202;16.274;2023-02-22T13:20:59;23.80;58.20
49124;DHT22;48506;48.202;16.274;2023-02-22T13:23:46;23.80;57.40
49124;DHT22;48506;48.202;16.274;2023-02-22T13:26:44;23.90;57.80
49124;DHT22;48506;48.202;16.274;2023-02-22T13:29:19;24.10;56.10
49124;DHT22;48506;48.202;16.274;2023-02-22T13:32:03;24.00;56.00
49124;DHT22;48506;48.202;16.274;2023-02-22T13:37:40;24.10;56.10
49124;DHT22;48506;48.202;16.274;2023-02-22T13:46:31;24.90;54.80
49124;DHT22;48506;48.202;16.274;2023-02-22T13:49:35;25.30;52.80
49124;DHT22;48506;48.202;16.274;2023-02-22T13:52:10;25.30;52.70
49124;DHT22;48506;48.202;16.274;2023-02-22T13:54:41;25.40;52.50
49124;DHT22;48506;48.202;16.274;2023-02-22T14:00:17;26.40;51.90
49124;DHT22;48506;48.202;16.274;2023-02-22T14:03:16;26.60;50.80
49124;DHT22;48506;48.202;16.274;2023-02-22T14:05:55;26.60;51.00
49124;DHT22;48506;48.202;16.274;2023-02-22T14:10:56;26.60;49.60
49124;DHT22;48506;48.202;16.274;2023-02-22T14:16:27;26.40;49.60
49124;DHT22;48506;48.202;16.274;2023-02-22T14:21:58;26.10;49.90
49124;DHT22;48506;48.202;16.274;2023-02-22T14:24:45;26.80;50.30
49124;DHT22;48506;48.202;16.274;2023-02-22T14:27:13;27.40;49.60
49124;DHT22;48506;48.202;16.274;2023-02-22T14:29:53;27.50;48.80
49124;DHT22;48506;48.202;16.274;2023-02-22T14:32:30;27.20;48.00
49124;DHT22;48506;48.202;16.274;2023-02-22T14:34:59;26.70;48.50
49124;DHT22;48506;48.202;16.274;2023-02-22T14:37:31;26.40;49.20
49124;DHT22;48506;48.202;16.274;2023-02-22T14:40:24;26.10;49.70
49124;DHT22;48506;48.202;16.274;2023-02-22T14:45:34;25.00;50.00
49124;DHT22;48506;48.202;16.274;2023-02-22T14:48:21;24.60;50.70
49124;DHT22;48506;48.202;16.274;2023-02-22T14:50:59;24.30;51.20
49124;DHT22;48506;48.202;16.274;2023-02-22T14:53:42;24.00;51.80
49124;DHT22;48506;48.202;16.274;2023-02-22T14:59:23;24.20;51.90
49124;DHT22;48506;48.202;16.274;2023-02-22T15:02:09;24.80;51.10
49124;DHT22;48506;48.202;16.274;2023-02-22T15:04:36;25.20;49.80
49124;DHT22;48506;48.202;16.274;2023-02-22T15:07:18;25.10;50.10
49124;DHT22;48506;48.202;16.274;2023-02-22T15:09:44;25.10;50.50
49124;DHT22;48506;48.202;16.274;2023-02-22T15:12:23;25.10;50.10
49124;DHT22;48506;48.202;16.274;2023-02-22T15:15:14;24.80;50.60
49124;DHT22;48506;48.202;16.274;2023-02-22T15:17:41;24.80;50.60
49124;DHT22;48506;48.202;16.274;2023-02-22T15:20:14;24.70;50.70
49124;DHT22;48506;48.202;16.274;2023-02-22T15:22:41;24.50;50.70
49124;DHT22;48506;48.202;16.274;2023-02-22T15:25:08;24.40;51.20
49124;DHT22;48506;48.202;16.274;2023-02-22T15:27:37;24.50;51.00
49124;DHT22;48506;48.202;16.274;2023-02-22T15:30:22;24.80;50.50
49124;DHT22;48506;48.202;16.274;2023-02-22T15:32:48;24.90;50.30
49124;DHT22;48506;48.202;16.274;2023-02-22T15:37:44;24.90;50.20
49124;DHT22;48506;48.202;16.274;2023-02-22T15:40:19;25.00;50.40
49124;DHT22;48506;48.202;16.274;2023-02-22T15:42:50;25.10;49.70
49124;DHT22;48506;48.202;16.274;2023-02-22T15:45:23;25.30;49.60
49124;DHT22;48506;48.202;16.274;2023-02-22T15:47:51;25.40;49.30
49124;DHT22;48506;48.202;16.274;2023-02-22T15:50:30;24.90;49.40
49124;DHT22;48506;48.202;16.274;2023-02-22T15:55:41;23.60;51.40
49124;DHT22;48506;48.202;16.274;2023-02-22T16:01:07;22.50;52.90
49124;DHT22;48506;48.202;16.274;2023-02-22T16:09:21;20.10;56.80
49124;DHT22;48506;48.202;16.274;2023-02-22T16:12:06;19.20;58.60
49124;DHT22;48506;48.202;16.274;2023-02-22T16:17:36;17.90;61.40
49124;DHT22;48506;48.202;16.274;2023-02-22T16:22:40;17.10;63.60
49124;DHT22;48506;48.202;16.274;2023-02-22T16:27:51;16.50;65.60
49124;DHT22;48506;48.202;16.274;2023-02-22T16:30:25;16.20;66.10
49124;DHT22;48506;48.202;16.274;2023-02-22T16:32:55;15.90;66.50
49124;DHT22;48506;48.202;16.274;2023-02-22T16:35:24;15.80;67.40
49124;DHT22;48506;48.202;16.274;2023-02-22T16:38:03;15.60;68.10
49124;DHT22;48506;48.202;16.274;2023-02-22T16:40:31;15.40;68.40
49124;DHT22;48506;48.202;16.274;2023-02-22T16:43:04;15.30;69.10
49124;DHT22;48506;48.202;16.274;2023-02-22T16:45:31;15.10;69.60
49124;DHT22;48506;48.202;16.274;2023-02-22T16:48:04;15.00;69.90
49124;DHT22;48506;48.202;16.274;2023-02-22T16:50:36;14.90;70.60
49124;DHT22;48506;48.202;16.274;2023-02-22T16:53:02;14.80;71.00
49124;DHT22;48506;48.202;16.274;2023-02-22T16:55:28;14.70;71.40
49124;DHT22;48506;48.202;16.274;2023-02-22T16:57:56;14.50;71.90
49124;DHT22;48506;48.202;16.274;2023-02-22T17:00:26;14.40;72.40
49124;DHT22;48506;48.202;16.274;2023-02-22T17:03:03;14.30;72.30
49124;DHT22;48506;48.202;16.274;2023-02-22T17:05:31;14.30;72.90
49124;DHT22;48506;48.202;16.274;2023-02-22T17:08:01;14.20;73.40
49124;DHT22;48506;48.202;16.274;2023-02-22T17:10:27;14.10;73.50
49124;DHT22;48506;48.202;16.274;2023-02-22T17:12:54;14.10;73.80
49124;DHT22;48506;48.202;16.274;2023-02-22T17:15:30;14.00;74.20
49124;DHT22;48506;48.202;16.274;2023-02-22T17:17:58;14.00;74.40
49124;DHT22;48506;48.202;16.274;2023-02-22T17:20:24;13.90;74.30
49124;DHT22;48506;48.202;16.274;2023-02-22T17:25:25;13.80;74.90
49124;DHT22;48506;48.202;16.274;2023-02-22T17:27:52;13.80;75.40
49124;DHT22;48506;48.202;16.274;2023-02-22T17:30:19;13.70;75.60
49124;DHT22;48506;48.202;16.274;2023-02-22T17:32:47;13.60;75.70
49124;DHT22;48506;48.202;16.274;2023-02-22T17:35:21;13.60;76.20
49124;DHT22;48506;48.202;16.274;2023-02-22T17:37:49;13.50;76.60
49124;DHT22;48506;48.202;16.274;2023-02-22T17:40:16;13.50;76.60
49124;DHT22;48506;48.202;16.274;2023-02-22T17:42:45;13.50;76.60
49124;DHT22;48506;48.202;16.274;2023-02-22T17:45:13;13.40;77.00
49124;DHT22;48506;48.202;16.274;2023-02-22T17:47:43;13.40;77.20
49124;DHT22;48506;48.202;16.274;2023-02-22T17:50:10;13.30;77.10
49124;DHT22;48506;48.202;16.274;2023-02-22T17:52:38;13.30;77.50
49124;DHT22;48506;48.202;16.274;2023-02-22T17:55:04;13.20;77.60
49124;DHT22;48506;48.202;16.274;2023-02-22T17:57:31;13.20;77.70
49124;DHT22;48506;48.202;16.274;2023-02-22T18:00:02;13.10;77.80
49124;DHT22;48506;48.202;16.274;2023-02-22T18:02:41;13.10;78.30
49124;DHT22;48506;48.202;16.274;2023-02-22T18:05:13;13.00;78.20
49124;DHT22;48506;48.202;16.274;2023-02-22T18:07:44;13.00;78.60
49124;DHT22;48506;48.202;16.274;2023-02-22T18:10:12;12.90;78.80
49124;DHT22;48506;48.202;16.274;2023-02-22T18:12:41;12.90;79.00
49124;DHT22;48506;48.202;16.274;2023-02-22T18:15:09;12.90;79.30
49124;DHT22;48506;48.202;16.274;2023-02-22T18:17:36;12.80;79.40
49124;DHT22;48506;48.202;16.274;2023-02-22T18:20:04;12.80;79.50